sensor_id;sensor_type;location;lat;lon;timestamp;temperature;humidity
15426;DHT22;7812;50.072;7.036;2023-09-07T00:00:04;13.70;99.90
15426;DHT22;7812;50.072;7.036;2023-09-07T00:02:31;13.60;99.90
15426;DHT22;7812;50.072;7.036;2023-09-07T00:04:57;13.50;99.90
15426;DHT22;7812;50.072;7.036;2023-09-07T00:07:23;13.50;99.90
15426;DHT22;7812;50.072;7.036;2023-09-07T00:09:48;13.50;99.90
15426;DHT22;7812;50.072;7.036;2023-09-07T00:12:15;13.50;99.90
15426;DHT22;7812;50.072;7.036;2023-09-07T00:14:41;13.50;99.90
15426;DHT22;7812;50.072;7.036;2023-09-07T00:17:06;13.50;99.90
15426;DHT22;7812;50.072;7.036;2023-09-07T00:19:32;13.50;99.90
15426;DHT22;7812;50.072;7.036;2023-09-07T00:21:59;13.50;99.90
15426;DHT22;7812;50.072;7.036;2023-09-07T00:24:24;13.40;99.90
15426;DHT22;7812;50.072;7.036;2023-09-07T00:26:50;13.40;99.90
15426;DHT22;7812;50.072;7.036;2023-09-07T00:29:17;13.30;99.90
15426;DHT22;7812;50.072;7.036;2023-09-07T00:31:43;13.40;99.90
15426;DHT22;7812;50.072;7.036;2023-09-07T00:34:09;13.40;99.90
15426;DHT22;7812;50.072;7.036;2023-09-07T00:36:35;13.30;99.90
15426;DHT22;7812;50.072;7.036;2023-09-07T00:39:01;13.30;99.90
15426;DHT22;7812;50.072;7.036;2023-09-07T00:41:27;13.20;99.90
15426;DHT22;7812;50.072;7.036;2023-09-07T00:43:53;13.20;99.90
15426;DHT22;7812;50.072;7.036;2023-09-07T00:46:19;13.10;99.90
15426;DHT22;7812;50.072;7.036;2023-09-07T00:48:45;13.10;99.90
15426;DHT22;7812;50.072;7.036;2023-09-07T00:51:12;13.10;99.90
15426;DHT22;7812;50.072;7.036;2023-09-07T00:53:38;13.10;99.90
15426;DHT22;7812;50.072;7.036;2023-09-07T00:56:04;13.00;99.90
15426;DHT22;7812;50.072;7.036;2023-09-07T00:58:30;13.00;99.90
15426;DHT22;7812;50.072;7.036;2023-09-07T01:00:56;13.00;99.90
15426;DHT22;7812;50.072;7.036;2023-09-07T01:03:22;12.90;99.90
15426;DHT22;7812;50.072;7.036;2023-09-07T01:08:32;13.00;99.90
15426;DHT22;7812;50.072;7.036;2023-09-07T01:10:58;12.90;99.90
15426;DHT22;7812;50.072;7.036;2023-09-07T01:13:23;12.90;99.90
15426;DHT22;7812;50.072;7.036;2023-09-07T01:15:50;12.80;99.90
15426;DHT22;7812;50.072;7.036;2023-09-07T01:18:16;12.90;99.90
15426;DHT22;7812;50.072;7.036;2023-09-07T01:20:44;12.90;99.90
15426;DHT22;7812;50.072;7.036;2023-09-07T01:23:11;12.80;99.90
15426;DHT22;7812;50.072;7.036;2023-09-07T01:25:40;12.70;99.90
15426;DHT22;7812;50.072;7.036;2023-09-07T01:28:06;12.70;99.90
15426;DHT22;7812;50.072;7.036;2023-09-07T01:30:35;12.70;99.90
15426;DHT22;7812;50.072;7.036;2023-09-07T01:33:01;12.80;99.90
15426;DHT22;7812;50.072;7.036;2023-09-07T01:35:29;12.80;99.90
15426;DHT22;7812;50.072;7.036;2023-09-07T01:37:56;12.70;99.90
15426;DHT22;7812;50.072;7.036;2023-09-07T01:40:22;12.70;99.90
15426;DHT22;7812;50.072;7.036;2023-09-07T01:42:47;12.70;99.90
15426;DHT22;7812;50.072;7.036;2023-09-07T01:45:13;12.70;99.90
15426;DHT22;7812;50.072;7.036;2023-09-07T01:47:39;12.60;99.90
15426;DHT22;7812;50.072;7.036;2023-09-07T01:50:05;12.70;99.90
15426;DHT22;7812;50.072;7.036;2023-09-07T01:52:31;12.70;99.90
15426;DHT22;7812;50.072;7.036;2023-09-07T01:54:57;12.60;99.90
15426;DHT22;7812;50.072;7.036;2023-09-07T01:57:23;12.60;99.90
15426;DHT22;7812;50.072;7.036;2023-09-07T01:59:48;12.60;99.90
15426;DHT22;7812;50.072;7.036;2023-09-07T02:02:14;12.60;99.90
15426;DHT22;7812;50.072;7.036;2023-09-07T02:04:40;12.60;99.90
15426;DHT22;7812;50.072;7.036;2023-09-07T02:07:09;12.60;99.90
15426;DHT22;7812;50.072;7.036;2023-09-07T02:09:34;12.50;99.90
15426;DHT22;7812;50.072;7.036;2023-09-07T02:12:00;12.50;99.90
15426;DHT22;7812;50.072;7.036;2023-09-07T02:14:26;12.50;99.90
15426;DHT22;7812;50.072;7.036;2023-09-07T02:16:51;12.50;99.90
15426;DHT22;7812;50.072;7.036;2023-09-07T02:19:17;12.50;99.90
15426;DHT22;7812;50.072;7.036;2023-09-07T02:21:43;12.40;99.90
15426;DHT22;7812;50.072;7.036;2023-09-07T02:24:08;12.50;99.90
15426;DHT22;7812;50.072;7.036;2023-09-07T02:26:34;12.40;99.90
15426;DHT22;7812;50.072;7.036;2023-09-07T02:29:00;12.40;99.90
15426;DHT22;7812;50.072;7.036;2023-09-07T02:31:28;12.40;99.90
15426;DHT22;7812;50.072;7.036;2023-09-07T02:33:54;12.30;99.90
15426;DHT22;7812;50.072;7.036;2023-09-07T02:36:20;12.30;99.90
15426;DHT22;7812;50.072;7.036;2023-09-07T02:38:46;12.30;99.90
15426;DHT22;7812;50.072;7.036;2023-09-07T02:41:11;12.20;99.90
15426;DHT22;7812;50.072;7.036;2023-09-07T02:43:37;12.20;99.90
15426;DHT22;7812;50.072;7.036;2023-09-07T02:46:03;12.30;99.90
15426;DHT22;7812;50.072;7.036;2023-09-07T02:48:28;12.20;99.90
15426;DHT22;7812;50.072;7.036;2023-09-07T02:50:54;12.20;99.90
15426;DHT22;7812;50.072;7.036;2023-09-07T02:53:20;12.20;99.90
15426;DHT22;7812;50.072;7.036;2023-09-07T02:55:47;12.20;99.90
15426;DHT22;7812;50.072;7.036;2023-09-07T02:58:13;12.10;99.90
15426;DHT22;7812;50.072;7.036;2023-09-07T03:00:43;12.00;99.90
15426;DHT22;7812;50.072;7.036;2023-09-07T03:03:13;12.00;99.90
15426;DHT22;7812;50.072;7.036;2023-09-07T03:05:40;11.90;99.90
15426;DHT22;7812;50.072;7.036;2023-09-07T03:08:06;11.90;99.90
15426;DHT22;7812;50.072;7.036;2023-09-07T03:10:32;12.00;99.90
15426;DHT22;7812;50.072;7.036;2023-09-07T03:12:58;12.00;99.90
15426;DHT22;7812;50.072;7.036;2023-09-07T03:15:24;12.00;99.90
15426;DHT22;7812;50.072;7.036;2023-09-07T03:17:49;12.00;99.90
15426;DHT22;7812;50.072;7.036;2023-09-07T03:20:15;11.90;99.90
15426;DHT22;7812;50.072;7.036;2023-09-07T03:22:43;11.90;99.90
15426;DHT22;7812;50.072;7.036;2023-09-07T03:25:17;11.80;99.90
15426;DHT22;7812;50.072;7.036;2023-09-07T03:27:43;11.80;99.90
15426;DHT22;7812;50.072;7.036;2023-09-07T03:30:09;11.90;99.90
15426;DHT22;7812;50.072;7.036;2023-09-07T03:32:35;11.90;99.90
15426;DHT22;7812;50.072;7.036;2023-09-07T03:35:03;11.80;99.90
15426;DHT22;7812;50.072;7.036;2023-09-07T03:37:32;11.80;99.90
15426;DHT22;7812;50.072;7.036;2023-09-07T03:40:00;11.70;99.90
15426;DHT22;7812;50.072;7.036;2023-09-07T03:42:25;11.70;99.90
15426;DHT22;7812;50.072;7.036;2023-09-07T03:44:51;11.70;99.90
15426;DHT22;7812;50.072;7.036;2023-09-07T03:47:17;11.80;99.90
15426;DHT22;7812;50.072;7.036;2023-09-07T03:49:49;11.70;99.90
15426;DHT22;7812;50.072;7.036;2023-09-07T03:52:14;11.70;99.90
15426;DHT22;7812;50.072;7.036;2023-09-07T03:54:40;11.70;99.90
15426;DHT22;7812;50.072;7.036;2023-09-07T03:57:06;11.70;99.90
15426;DHT22;7812;50.072;7.036;2023-09-07T03:59:31;11.70;99.90
15426;DHT22;7812;50.072;7.036;2023-09-07T04:01:57;11.60;99.90
15426;DHT22;7812;50.072;7.036;2023-09-07T04:04:23;11.60;99.90
15426;DHT22;7812;50.072;7.036;2023-09-07T04:06:48;11.50;99.90
15426;DHT22;7812;50.072;7.036;2023-09-07T04:09:14;11.60;99.90
15426;DHT22;7812;50.072;7.036;2023-09-07T04:11:40;11.60;99.90
15426;DHT22;7812;50.072;7.036;2023-09-07T04:14:05;11.50;99.90
15426;DHT22;7812;50.072;7.036;2023-09-07T04:16:31;11.50;99.90
15426;DHT22;7812;50.072;7.036;2023-09-07T04:18:57;11.50;99.90
15426;DHT22;7812;50.072;7.036;2023-09-07T04:21:23;11.50;99.90
15426;DHT22;7812;50.072;7.036;2023-09-07T04:23:48;11.50;99.90
15426;DHT22;7812;50.072;7.036;2023-09-07T04:26:14;11.50;99.90
15426;DHT22;7812;50.072;7.036;2023-09-07T04:28:40;11.40;99.90
15426;DHT22;7812;50.072;7.036;2023-09-07T04:31:06;11.30;99.90
15426;DHT22;7812;50.072;7.036;2023-09-07T04:33:33;11.30;99.90
15426;DHT22;7812;50.072;7.036;2023-09-07T04:36:14;11.30;99.90
15426;DHT22;7812;50.072;7.036;2023-09-07T04:38:41;11.20;99.90
15426;DHT22;7812;50.072;7.036;2023-09-07T04:41:07;11.20;99.90
15426;DHT22;7812;50.072;7.036;2023-09-07T04:43:33;11.20;99.90
15426;DHT22;7812;50.072;7.036;2023-09-07T04:45:59;11.30;99.90
15426;DHT22;7812;50.072;7.036;2023-09-07T04:48:25;11.30;99.90
15426;DHT22;7812;50.072;7.036;2023-09-07T04:51:10;11.20;99.90
15426;DHT22;7812;50.072;7.036;2023-09-07T04:53:38;11.20;99.90
15426;DHT22;7812;50.072;7.036;2023-09-07T04:56:06;11.20;99.90
15426;DHT22;7812;50.072;7.036;2023-09-07T04:58:32;11.30;99.90
15426;DHT22;7812;50.072;7.036;2023-09-07T05:01:09;11.20;99.90
15426;DHT22;7812;50.072;7.036;2023-09-07T05:03:37;11.10;99.90
15426;DHT22;7812;50.072;7.036;2023-09-07T05:06:04;11.10;99.90
15426;DHT22;7812;50.072;7.036;2023-09-07T05:08:30;11.20;99.90
15426;DHT22;7812;50.072;7.036;2023-09-07T05:10:57;11.30;99.90
15426;DHT22;7812;50.072;7.036;2023-09-07T05:13:23;11.30;99.90
15426;DHT22;7812;50.072;7.036;2023-09-07T05:15:50;11.20;99.90
15426;DHT22;7812;50.072;7.036;2023-09-07T05:18:17;11.20;99.90
15426;DHT22;7812;50.072;7.036;2023-09-07T05:20:43;11.30;99.90
15426;DHT22;7812;50.072;7.036;2023-09-07T05:23:14;11.40;99.90
15426;DHT22;7812;50.072;7.036;2023-09-07T05:25:49;11.40;99.90
15426;DHT22;7812;50.072;7.036;2023-09-07T05:28:16;11.30;99.90
15426;DHT22;7812;50.072;7.036;2023-09-07T05:30:42;11.20;99.90
15426;DHT22;7812;50.072;7.036;2023-09-07T05:33:12;11.30;99.90
15426;DHT22;7812;50.072;7.036;2023-09-07T05:35:38;11.40;99.90
15426;DHT22;7812;50.072;7.036;2023-09-07T05:38:05;11.40;99.90
15426;DHT22;7812;50.072;7.036;2023-09-07T05:40:39;11.50;99.90
15426;DHT22;7812;50.072;7.036;2023-09-07T05:43:05;11.50;99.90
15426;DHT22;7812;50.072;7.036;2023-09-07T05:45:35;11.60;99.90
15426;DHT22;7812;50.072;7.036;2023-09-07T05:48:02;11.50;99.90
15426;DHT22;7812;50.072;7.036;2023-09-07T05:50:28;11.40;99.90
15426;DHT22;7812;50.072;7.036;2023-09-07T05:52:54;11.50;99.90
15426;DHT22;7812;50.072;7.036;2023-09-07T05:55:20;11.60;99.90
15426;DHT22;7812;50.072;7.036;2023-09-07T05:57:45;11.70;99.90
15426;DHT22;7812;50.072;7.036;2023-09-07T06:00:12;11.80;99.90
15426;DHT22;7812;50.072;7.036;2023-09-07T06:02:38;11.70;99.90
15426;DHT22;7812;50.072;7.036;2023-09-07T06:05:05;12.10;99.90
15426;DHT22;7812;50.072;7.036;2023-09-07T06:07:30;13.30;99.90
15426;DHT22;7812;50.072;7.036;2023-09-07T06:09:56;14.20;99.90
15426;DHT22;7812;50.072;7.036;2023-09-07T06:12:24;15.80;99.90
15426;DHT22;7812;50.072;7.036;2023-09-07T06:14:50;17.10;99.90
15426;DHT22;7812;50.072;7.036;2023-09-07T06:17:16;18.20;99.90
15426;DHT22;7812;50.072;7.036;2023-09-07T06:19:41;19.10;99.90
15426;DHT22;7812;50.072;7.036;2023-09-07T06:22:08;19.90;99.90
15426;DHT22;7812;50.072;7.036;2023-09-07T06:24:33;20.10;99.90
15426;DHT22;7812;50.072;7.036;2023-09-07T06:26:59;20.60;99.90
15426;DHT22;7812;50.072;7.036;2023-09-07T06:29:25;21.20;99.90
15426;DHT22;7812;50.072;7.036;2023-09-07T06:31:56;21.30;99.90
15426;DHT22;7812;50.072;7.036;2023-09-07T06:34:22;21.50;99.90
15426;DHT22;7812;50.072;7.036;2023-09-07T06:36:48;21.30;99.90
15426;DHT22;7812;50.072;7.036;2023-09-07T06:39:13;21.40;99.90
15426;DHT22;7812;50.072;7.036;2023-09-07T06:41:39;21.90;99.90
15426;DHT22;7812;50.072;7.036;2023-09-07T06:44:05;22.00;99.90
15426;DHT22;7812;50.072;7.036;2023-09-07T06:46:30;22.10;99.90
15426;DHT22;7812;50.072;7.036;2023-09-07T06:48:56;21.70;99.90
15426;DHT22;7812;50.072;7.036;2023-09-07T06:51:21;22.10;99.90
15426;DHT22;7812;50.072;7.036;2023-09-07T06:53:48;23.10;99.90
15426;DHT22;7812;50.072;7.036;2023-09-07T06:56:15;24.00;99.90
15426;DHT22;7812;50.072;7.036;2023-09-07T06:58:41;24.90;99.90
15426;DHT22;7812;50.072;7.036;2023-09-07T07:01:07;25.30;99.90
15426;DHT22;7812;50.072;7.036;2023-09-07T07:03:34;25.90;99.90
15426;DHT22;7812;50.072;7.036;2023-09-07T07:06:00;26.40;99.90
15426;DHT22;7812;50.072;7.036;2023-09-07T07:08:26;26.40;99.90
15426;DHT22;7812;50.072;7.036;2023-09-07T07:10:51;26.50;99.90
15426;DHT22;7812;50.072;7.036;2023-09-07T07:13:18;26.30;99.90
15426;DHT22;7812;50.072;7.036;2023-09-07T07:15:44;26.90;99.90
15426;DHT22;7812;50.072;7.036;2023-09-07T07:18:09;27.50;99.90
15426;DHT22;7812;50.072;7.036;2023-09-07T07:20:36;28.00;99.90
15426;DHT22;7812;50.072;7.036;2023-09-07T07:23:02;28.50;99.90
15426;DHT22;7812;50.072;7.036;2023-09-07T07:25:28;29.10;99.90
15426;DHT22;7812;50.072;7.036;2023-09-07T07:27:55;29.40;99.90
15426;DHT22;7812;50.072;7.036;2023-09-07T07:30:20;29.50;99.90
15426;DHT22;7812;50.072;7.036;2023-09-07T07:32:46;29.90;99.90
15426;DHT22;7812;50.072;7.036;2023-09-07T07:35:12;29.80;99.90
15426;DHT22;7812;50.072;7.036;2023-09-07T07:37:39;30.30;99.90
15426;DHT22;7812;50.072;7.036;2023-09-07T07:40:05;30.70;99.90
15426;DHT22;7812;50.072;7.036;2023-09-07T07:42:32;31.20;99.90
15426;DHT22;7812;50.072;7.036;2023-09-07T07:44:58;31.50;99.90
15426;DHT22;7812;50.072;7.036;2023-09-07T07:47:23;31.80;99.90
15426;DHT22;7812;50.072;7.036;2023-09-07T07:49:49;32.10;99.90
15426;DHT22;7812;50.072;7.036;2023-09-07T07:52:15;32.30;99.90
15426;DHT22;7812;50.072;7.036;2023-09-07T07:54:40;32.50;99.90
15426;DHT22;7812;50.072;7.036;2023-09-07T07:57:06;32.40;99.90
15426;DHT22;7812;50.072;7.036;2023-09-07T07:59:34;32.60;99.90
15426;DHT22;7812;50.072;7.036;2023-09-07T08:01:59;32.60;99.90
15426;DHT22;7812;50.072;7.036;2023-09-07T08:04:25;32.50;99.90
15426;DHT22;7812;50.072;7.036;2023-09-07T08:06:54;32.50;99.90
15426;DHT22;7812;50.072;7.036;2023-09-07T08:09:23;32.60;99.90
15426;DHT22;7812;50.072;7.036;2023-09-07T08:11:49;33.00;99.90
15426;DHT22;7812;50.072;7.036;2023-09-07T08:14:16;33.60;99.90
15426;DHT22;7812;50.072;7.036;2023-09-07T08:16:41;33.60;99.90
15426;DHT22;7812;50.072;7.036;2023-09-07T08:19:07;32.10;99.90
15426;DHT22;7812;50.072;7.036;2023-09-07T08:21:33;31.70;99.90
15426;DHT22;7812;50.072;7.036;2023-09-07T08:23:59;31.90;99.90
15426;DHT22;7812;50.072;7.036;2023-09-07T08:26:25;32.50;99.90
15426;DHT22;7812;50.072;7.036;2023-09-07T08:28:51;33.50;99.90
15426;DHT22;7812;50.072;7.036;2023-09-07T08:31:17;34.80;99.90
15426;DHT22;7812;50.072;7.036;2023-09-07T08:33:47;35.80;99.90
15426;DHT22;7812;50.072;7.036;2023-09-07T08:36:16;36.70;99.10
15426;DHT22;7812;50.072;7.036;2023-09-07T08:38:42;37.00;98.20
15426;DHT22;7812;50.072;7.036;2023-09-07T08:41:08;37.80;96.90
15426;DHT22;7812;50.072;7.036;2023-09-07T08:43:44;38.30;95.60
15426;DHT22;7812;50.072;7.036;2023-09-07T08:46:17;37.50;95.80
15426;DHT22;7812;50.072;7.036;2023-09-07T08:48:43;38.40;95.00
15426;DHT22;7812;50.072;7.036;2023-09-07T08:51:12;39.10;94.30
15426;DHT22;7812;50.072;7.036;2023-09-07T08:53:40;39.80;93.00
15426;DHT22;7812;50.072;7.036;2023-09-07T08:56:07;39.80;92.70
15426;DHT22;7812;50.072;7.036;2023-09-07T08:58:38;40.00;92.10
15426;DHT22;7812;50.072;7.036;2023-09-07T09:01:05;40.00;91.90
15426;DHT22;7812;50.072;7.036;2023-09-07T09:03:32;40.40;91.80
15426;DHT22;7812;50.072;7.036;2023-09-07T09:06:00;40.50;91.10
15426;DHT22;7812;50.072;7.036;2023-09-07T09:08:25;40.00;91.10
15426;DHT22;7812;50.072;7.036;2023-09-07T09:11:03;40.20;90.50
15426;DHT22;7812;50.072;7.036;2023-09-07T09:13:32;40.80;90.60
15426;DHT22;7812;50.072;7.036;2023-09-07T09:16:01;40.40;90.30
15426;DHT22;7812;50.072;7.036;2023-09-07T09:18:27;41.10;88.50
15426;DHT22;7812;50.072;7.036;2023-09-07T09:20:55;37.70;88.10
15426;DHT22;7812;50.072;7.036;2023-09-07T09:23:20;37.60;90.10
15426;DHT22;7812;50.072;7.036;2023-09-07T09:25:48;38.20;89.50
15426;DHT22;7812;50.072;7.036;2023-09-07T09:28:14;38.80;89.80
15426;DHT22;7812;50.072;7.036;2023-09-07T09:30:41;37.70;89.10
15426;DHT22;7812;50.072;7.036;2023-09-07T09:33:10;36.50;89.40
15426;DHT22;7812;50.072;7.036;2023-09-07T09:35:36;36.00;90.60
15426;DHT22;7812;50.072;7.036;2023-09-07T09:38:02;34.80;90.60
15426;DHT22;7812;50.072;7.036;2023-09-07T09:40:34;33.90;91.40
15426;DHT22;7812;50.072;7.036;2023-09-07T09:43:02;34.00;91.50
15426;DHT22;7812;50.072;7.036;2023-09-07T09:45:29;33.90;92.10
15426;DHT22;7812;50.072;7.036;2023-09-07T09:47:55;34.50;92.60
15426;DHT22;7812;50.072;7.036;2023-09-07T09:50:26;34.70;91.90
15426;DHT22;7812;50.072;7.036;2023-09-07T09:52:55;34.10;91.90
15426;DHT22;7812;50.072;7.036;2023-09-07T09:55:22;34.60;92.20
15426;DHT22;7812;50.072;7.036;2023-09-07T09:57:47;33.70;92.30
15426;DHT22;7812;50.072;7.036;2023-09-07T10:00:14;34.00;92.80
15426;DHT22;7812;50.072;7.036;2023-09-07T10:02:47;35.20;92.70
15426;DHT22;7812;50.072;7.036;2023-09-07T10:05:13;34.50;91.90
15426;DHT22;7812;50.072;7.036;2023-09-07T10:07:45;35.80;91.80
15426;DHT22;7812;50.072;7.036;2023-09-07T10:10:13;36.40;91.70
15426;DHT22;7812;50.072;7.036;2023-09-07T10:13:06;37.30;90.90
15426;DHT22;7812;50.072;7.036;2023-09-07T10:15:33;36.40;91.40
15426;DHT22;7812;50.072;7.036;2023-09-07T10:23:14;36.30;90.60
15426;DHT22;7812;50.072;7.036;2023-09-07T10:25:40;36.60;91.00
15426;DHT22;7812;50.072;7.036;2023-09-07T10:28:18;35.70;90.80
15426;DHT22;7812;50.072;7.036;2023-09-07T10:30:44;37.30;90.70
15426;DHT22;7812;50.072;7.036;2023-09-07T10:33:20;38.10;90.50
15426;DHT22;7812;50.072;7.036;2023-09-07T10:35:46;38.40;89.40
15426;DHT22;7812;50.072;7.036;2023-09-07T10:38:15;36.40;90.50
15426;DHT22;7812;50.072;7.036;2023-09-07T10:40:44;35.80;90.60
15426;DHT22;7812;50.072;7.036;2023-09-07T10:43:11;35.90;90.50
15426;DHT22;7812;50.072;7.036;2023-09-07T10:45:36;35.40;90.90
15426;DHT22;7812;50.072;7.036;2023-09-07T10:48:02;34.70;91.00
15426;DHT22;7812;50.072;7.036;2023-09-07T10:50:42;35.60;90.90
15426;DHT22;7812;50.072;7.036;2023-09-07T10:53:08;37.00;90.50
15426;DHT22;7812;50.072;7.036;2023-09-07T10:55:37;37.10;85.10
15426;DHT22;7812;50.072;7.036;2023-09-07T10:58:06;36.30;88.40
15426;DHT22;7812;50.072;7.036;2023-09-07T11:00:34;36.50;89.60
15426;DHT22;7812;50.072;7.036;2023-09-07T11:03:07;37.00;88.40
15426;DHT22;7812;50.072;7.036;2023-09-07T11:05:35;37.20;86.80
15426;DHT22;7812;50.072;7.036;2023-09-07T11:08:06;35.90;87.20
15426;DHT22;7812;50.072;7.036;2023-09-07T11:10:33;36.20;88.00
15426;DHT22;7812;50.072;7.036;2023-09-07T11:13:02;37.70;86.20
15426;DHT22;7812;50.072;7.036;2023-09-07T11:15:30;38.30;85.20
15426;DHT22;7812;50.072;7.036;2023-09-07T11:17:56;37.80;84.10
15426;DHT22;7812;50.072;7.036;2023-09-07T11:20:23;37.70;83.60
15426;DHT22;7812;50.072;7.036;2023-09-07T11:22:50;37.90;83.60
15426;DHT22;7812;50.072;7.036;2023-09-07T11:25:16;37.40;82.70
15426;DHT22;7812;50.072;7.036;2023-09-07T11:27:42;36.90;82.80
15426;DHT22;7812;50.072;7.036;2023-09-07T11:30:10;36.80;82.40
15426;DHT22;7812;50.072;7.036;2023-09-07T11:32:36;36.40;83.00
15426;DHT22;7812;50.072;7.036;2023-09-07T11:35:03;36.20;81.80
15426;DHT22;7812;50.072;7.036;2023-09-07T11:37:33;35.90;83.90
15426;DHT22;7812;50.072;7.036;2023-09-07T11:40:00;36.40;82.60
15426;DHT22;7812;50.072;7.036;2023-09-07T11:42:26;35.90;82.80
15426;DHT22;7812;50.072;7.036;2023-09-07T11:44:52;35.40;82.70
15426;DHT22;7812;50.072;7.036;2023-09-07T11:47:17;37.00;82.20
15426;DHT22;7812;50.072;7.036;2023-09-07T11:49:43;34.90;82.30
15426;DHT22;7812;50.072;7.036;2023-09-07T11:52:09;35.10;82.30
15426;DHT22;7812;50.072;7.036;2023-09-07T11:54:34;35.60;82.80
15426;DHT22;7812;50.072;7.036;2023-09-07T11:57:00;35.90;84.40
15426;DHT22;7812;50.072;7.036;2023-09-07T11:59:26;36.00;82.80
15426;DHT22;7812;50.072;7.036;2023-09-07T12:01:53;36.50;83.50
15426;DHT22;7812;50.072;7.036;2023-09-07T12:04:19;35.90;83.70
15426;DHT22;7812;50.072;7.036;2023-09-07T12:06:45;36.20;83.00
15426;DHT22;7812;50.072;7.036;2023-09-07T12:09:10;35.90;82.90
15426;DHT22;7812;50.072;7.036;2023-09-07T12:11:37;36.90;83.10
15426;DHT22;7812;50.072;7.036;2023-09-07T12:14:03;36.80;82.10
15426;DHT22;7812;50.072;7.036;2023-09-07T12:16:29;36.90;82.60
15426;DHT22;7812;50.072;7.036;2023-09-07T12:18:56;36.00;83.40
15426;DHT22;7812;50.072;7.036;2023-09-07T12:21:21;35.80;84.60
15426;DHT22;7812;50.072;7.036;2023-09-07T12:23:47;36.50;83.80
15426;DHT22;7812;50.072;7.036;2023-09-07T12:26:14;35.60;84.00
15426;DHT22;7812;50.072;7.036;2023-09-07T12:28:42;35.20;84.30
15426;DHT22;7812;50.072;7.036;2023-09-07T12:31:08;34.90;85.60
15426;DHT22;7812;50.072;7.036;2023-09-07T12:33:33;34.30;85.50
15426;DHT22;7812;50.072;7.036;2023-09-07T12:35:59;35.00;85.00
15426;DHT22;7812;50.072;7.036;2023-09-07T12:38:25;35.00;83.60
15426;DHT22;7812;50.072;7.036;2023-09-07T12:40:54;35.30;85.00
15426;DHT22;7812;50.072;7.036;2023-09-07T12:43:20;35.80;84.90
15426;DHT22;7812;50.072;7.036;2023-09-07T12:45:46;36.70;83.50
15426;DHT22;7812;50.072;7.036;2023-09-07T12:48:12;37.30;83.30
15426;DHT22;7812;50.072;7.036;2023-09-07T12:50:40;37.60;83.80
15426;DHT22;7812;50.072;7.036;2023-09-07T12:53:06;37.50;81.70
15426;DHT22;7812;50.072;7.036;2023-09-07T12:55:32;37.50;82.20
15426;DHT22;7812;50.072;7.036;2023-09-07T12:57:58;37.80;82.80
15426;DHT22;7812;50.072;7.036;2023-09-07T13:00:26;38.80;81.40
15426;DHT22;7812;50.072;7.036;2023-09-07T13:02:51;39.30;80.30
15426;DHT22;7812;50.072;7.036;2023-09-07T13:05:17;37.70;80.60
15426;DHT22;7812;50.072;7.036;2023-09-07T13:07:43;37.10;82.40
15426;DHT22;7812;50.072;7.036;2023-09-07T13:10:10;37.20;82.40
15426;DHT22;7812;50.072;7.036;2023-09-07T13:12:37;36.90;80.90
15426;DHT22;7812;50.072;7.036;2023-09-07T13:15:03;35.50;82.70
15426;DHT22;7812;50.072;7.036;2023-09-07T13:17:29;35.70;84.40
15426;DHT22;7812;50.072;7.036;2023-09-07T13:19:55;35.10;82.70
15426;DHT22;7812;50.072;7.036;2023-09-07T13:22:21;35.20;82.80
15426;DHT22;7812;50.072;7.036;2023-09-07T13:24:46;35.60;82.50
15426;DHT22;7812;50.072;7.036;2023-09-07T13:27:12;35.70;80.90
15426;DHT22;7812;50.072;7.036;2023-09-07T13:29:38;35.00;79.70
15426;DHT22;7812;50.072;7.036;2023-09-07T13:32:04;34.30;81.30
15426;DHT22;7812;50.072;7.036;2023-09-07T13:34:30;34.00;81.10
15426;DHT22;7812;50.072;7.036;2023-09-07T13:36:56;33.20;81.20
15426;DHT22;7812;50.072;7.036;2023-09-07T13:39:22;33.30;82.50
15426;DHT22;7812;50.072;7.036;2023-09-07T13:41:48;33.80;82.20
15426;DHT22;7812;50.072;7.036;2023-09-07T13:44:14;33.60;81.90
15426;DHT22;7812;50.072;7.036;2023-09-07T13:46:41;32.90;80.70
15426;DHT22;7812;50.072;7.036;2023-09-07T13:49:07;32.80;81.20
15426;DHT22;7812;50.072;7.036;2023-09-07T13:51:32;33.20;82.00
15426;DHT22;7812;50.072;7.036;2023-09-07T13:54:05;32.90;80.80
15426;DHT22;7812;50.072;7.036;2023-09-07T13:56:32;32.60;81.90
15426;DHT22;7812;50.072;7.036;2023-09-07T13:58:59;32.20;82.10
15426;DHT22;7812;50.072;7.036;2023-09-07T14:01:25;31.80;83.10
15426;DHT22;7812;50.072;7.036;2023-09-07T14:03:51;31.50;82.90
15426;DHT22;7812;50.072;7.036;2023-09-07T14:06:17;31.30;82.50
15426;DHT22;7812;50.072;7.036;2023-09-07T14:08:45;30.90;83.20
15426;DHT22;7812;50.072;7.036;2023-09-07T14:11:11;30.80;83.90
15426;DHT22;7812;50.072;7.036;2023-09-07T14:13:37;30.60;83.00
15426;DHT22;7812;50.072;7.036;2023-09-07T14:16:04;30.70;82.50
15426;DHT22;7812;50.072;7.036;2023-09-07T14:18:30;30.80;83.20
15426;DHT22;7812;50.072;7.036;2023-09-07T14:20:56;31.20;83.40
15426;DHT22;7812;50.072;7.036;2023-09-07T14:23:26;31.20;83.00
15426;DHT22;7812;50.072;7.036;2023-09-07T14:25:53;31.00;83.60
15426;DHT22;7812;50.072;7.036;2023-09-07T14:28:18;30.60;83.30
15426;DHT22;7812;50.072;7.036;2023-09-07T14:30:44;30.80;84.00
15426;DHT22;7812;50.072;7.036;2023-09-07T14:33:09;30.70;83.30
15426;DHT22;7812;50.072;7.036;2023-09-07T14:35:35;30.50;82.60
15426;DHT22;7812;50.072;7.036;2023-09-07T14:38:01;30.50;83.50
15426;DHT22;7812;50.072;7.036;2023-09-07T14:40:27;30.50;83.90
15426;DHT22;7812;50.072;7.036;2023-09-07T14:42:53;30.40;84.40
15426;DHT22;7812;50.072;7.036;2023-09-07T14:45:19;30.30;85.00
15426;DHT22;7812;50.072;7.036;2023-09-07T14:47:45;30.40;83.80
15426;DHT22;7812;50.072;7.036;2023-09-07T14:50:11;30.20;84.50
15426;DHT22;7812;50.072;7.036;2023-09-07T14:52:36;30.00;82.10
15426;DHT22;7812;50.072;7.036;2023-09-07T14:55:07;29.90;83.80
15426;DHT22;7812;50.072;7.036;2023-09-07T14:57:34;29.60;83.40
15426;DHT22;7812;50.072;7.036;2023-09-07T15:00:00;29.60;83.50
15426;DHT22;7812;50.072;7.036;2023-09-07T15:02:26;29.70;84.20
15426;DHT22;7812;50.072;7.036;2023-09-07T15:04:52;29.60;84.00
15426;DHT22;7812;50.072;7.036;2023-09-07T15:07:17;29.50;84.40
15426;DHT22;7812;50.072;7.036;2023-09-07T15:09:44;29.30;85.30
15426;DHT22;7812;50.072;7.036;2023-09-07T15:12:09;29.30;84.80
15426;DHT22;7812;50.072;7.036;2023-09-07T15:14:36;29.30;85.90
15426;DHT22;7812;50.072;7.036;2023-09-07T15:17:02;29.40;85.10
15426;DHT22;7812;50.072;7.036;2023-09-07T15:19:28;29.50;84.00
15426;DHT22;7812;50.072;7.036;2023-09-07T15:21:55;29.40;85.30
15426;DHT22;7812;50.072;7.036;2023-09-07T15:24:21;29.40;84.30
15426;DHT22;7812;50.072;7.036;2023-09-07T15:26:47;29.30;84.00
15426;DHT22;7812;50.072;7.036;2023-09-07T15:29:13;29.20;82.40
15426;DHT22;7812;50.072;7.036;2023-09-07T15:31:40;29.20;82.30
15426;DHT22;7812;50.072;7.036;2023-09-07T15:34:05;29.10;83.20
15426;DHT22;7812;50.072;7.036;2023-09-07T15:36:31;28.90;82.80
15426;DHT22;7812;50.072;7.036;2023-09-07T15:38:58;28.90;82.80
15426;DHT22;7812;50.072;7.036;2023-09-07T15:41:24;28.90;84.40
15426;DHT22;7812;50.072;7.036;2023-09-07T15:43:50;28.90;84.20
15426;DHT22;7812;50.072;7.036;2023-09-07T15:46:16;28.80;85.00
15426;DHT22;7812;50.072;7.036;2023-09-07T15:48:41;28.80;85.90